createdAt,value
2019-01-29T00:01:48.009Z,38.90
2019-01-29T00:04:17.872Z,38.60
2019-01-29T00:06:47.992Z,38.70
2019-01-29T00:09:17.927Z,38.60
2019-01-29T00:11:47.786Z,38.60
2019-01-29T00:14:17.785Z,38.50
2019-01-29T00:16:47.735Z,38.50
2019-01-29T00:19:17.681Z,38.60
2019-01-29T00:21:47.528Z,38.40
2019-01-29T00:24:17.454Z,38.60
2019-01-29T00:26:47.495Z,38.30
2019-01-29T00:29:17.464Z,38.30
2019-01-29T00:31:47.457Z,38.30
2019-01-29T00:34:17.406Z,38.10
2019-01-29T00:36:47.333Z,38.10
2019-01-29T00:39:17.267Z,38.10
2019-01-29T00:41:47.044Z,38.20
2019-01-29T00:44:17.026Z,38.10
2019-01-29T00:46:46.919Z,38.00
2019-01-29T00:49:16.770Z,38.00
2019-01-29T00:51:46.627Z,38.00
2019-01-29T00:54:19.029Z,38.00
2019-01-29T00:56:48.962Z,38.00
2019-01-29T00:59:18.771Z,38.10
2019-01-29T01:01:48.721Z,38.00
2019-01-29T01:04:19.660Z,37.90
2019-01-29T01:06:49.574Z,37.90
2019-01-29T01:09:19.518Z,37.90
2019-01-29T01:11:49.454Z,37.80
2019-01-29T01:14:19.387Z,37.80
2019-01-29T01:16:50.292Z,37.90
2019-01-29T01:19:20.233Z,37.80
2019-01-29T01:21:50.182Z,37.60
2019-01-29T01:24:20.126Z,37.70
2019-01-29T01:26:49.985Z,37.90
2019-01-29T01:29:19.843Z,37.60
2019-01-29T01:31:49.778Z,37.60
2019-01-29T01:34:19.881Z,37.60
2019-01-29T01:36:49.817Z,37.50
2019-01-29T01:39:19.671Z,37.70
2019-01-29T01:41:49.613Z,37.50
2019-01-29T01:44:19.470Z,37.60
2019-01-29T01:46:49.433Z,37.60
2019-01-29T01:49:19.542Z,37.50
2019-01-29T01:51:49.401Z,37.40
2019-01-29T01:54:19.333Z,37.40
2019-01-29T01:56:49.265Z,37.30
2019-01-29T01:59:19.270Z,37.40
2019-01-29T02:01:49.241Z,37.40
2019-01-29T02:04:19.171Z,37.20
2019-01-29T02:06:49.113Z,37.20
2019-01-29T02:09:19.142Z,37.30
2019-01-29T02:11:49.092Z,37.10
2019-01-29T02:14:19.060Z,37.10
2019-01-29T02:16:49.002Z,37.10
2019-01-29T02:19:19.789Z,37.00
2019-01-29T02:21:49.894Z,36.90
2019-01-29T02:24:19.857Z,37.00
2019-01-29T02:26:49.946Z,37.70
2019-01-29T02:29:19.949Z,37.10
2019-01-29T02:31:49.921Z,37.00
2019-01-29T02:34:19.930Z,36.90
2019-01-29T02:36:50.879Z,36.90
2019-01-29T02:39:20.726Z,37.00
2019-01-29T02:41:50.669Z,37.10
2019-01-29T02:44:21.578Z,37.10
2019-01-29T02:46:51.460Z,37.60
2019-01-29T02:49:21.472Z,37.30
2019-01-29T02:51:51.406Z,37.20
2019-01-29T02:54:21.209Z,37.20
2019-01-29T02:56:51.201Z,37.10
2019-01-29T02:59:21.155Z,37.20
2019-01-29T03:01:51.094Z,37.10
2019-01-29T03:04:21.052Z,37.10
2019-01-29T03:06:50.998Z,36.80
2019-01-29T03:09:20.885Z,36.90
2019-01-29T03:11:50.891Z,36.90
2019-01-29T03:14:20.857Z,37.00
2019-01-29T03:16:50.900Z,36.80
2019-01-29T03:19:20.954Z,36.60
2019-01-29T03:21:50.858Z,36.50
2019-01-29T03:24:20.787Z,36.40
2019-01-29T03:26:50.705Z,36.50
2019-01-29T03:29:20.729Z,36.80
2019-01-29T03:31:50.779Z,37.00
2019-01-29T03:34:20.764Z,36.60
2019-01-29T03:36:50.645Z,36.60
2019-01-29T03:39:20.654Z,36.40
2019-01-29T03:41:50.537Z,36.30
2019-01-29T03:44:20.407Z,36.30
2019-01-29T03:46:50.325Z,36.30
2019-01-29T03:49:21.278Z,36.30
2019-01-29T03:51:51.141Z,36.30
2019-01-29T03:54:21.097Z,36.30
2019-01-29T03:56:51.027Z,36.30
2019-01-29T03:59:21.009Z,36.30
2019-01-29T04:01:50.936Z,36.20
2019-01-29T04:04:20.817Z,36.20
2019-01-29T04:06:50.745Z,36.40
2019-01-29T04:09:20.699Z,36.30
2019-01-29T04:11:50.550Z,36.20
2019-01-29T04:14:20.426Z,36.20
2019-01-29T04:16:50.282Z,36.30
2019-01-29T04:19:20.220Z,36.20
2019-01-29T04:21:50.169Z,36.30
2019-01-29T04:24:20.107Z,36.00
2019-01-29T04:26:49.984Z,36.10
2019-01-29T04:29:19.910Z,36.10
2019-01-29T04:31:49.882Z,36.10
2019-01-29T04:34:19.915Z,36.00
2019-01-29T04:36:49.790Z,36.00
2019-01-29T04:39:19.838Z,36.00
2019-01-29T04:41:49.696Z,36.20
2019-01-29T04:44:19.721Z,35.90
2019-01-29T04:46:49.662Z,36.00
2019-01-29T04:49:19.766Z,35.90
2019-01-29T04:51:49.666Z,36.10
2019-01-29T04:54:19.513Z,36.00
2019-01-29T04:56:49.385Z,36.00
2019-01-29T04:59:19.320Z,36.10
2019-01-29T05:01:49.253Z,36.00
2019-01-29T05:04:19.185Z,36.00
2019-01-29T05:06:49.818Z,36.00
2019-01-29T05:09:19.857Z,35.90
2019-01-29T05:11:49.787Z,35.90
2019-01-29T05:14:19.763Z,36.00
2019-01-29T05:16:49.635Z,35.80
2019-01-29T05:19:19.585Z,35.90
2019-01-29T05:21:49.526Z,35.70
2019-01-29T05:24:19.465Z,35.80
2019-01-29T05:26:49.456Z,35.80
2019-01-29T05:29:19.439Z,35.90
2019-01-29T05:31:49.337Z,35.90
2019-01-29T05:34:19.196Z,35.70
2019-01-29T05:36:49.126Z,35.80
2019-01-29T05:39:18.988Z,35.70
2019-01-29T05:41:48.845Z,35.70
2019-01-29T05:44:18.705Z,35.80
2019-01-29T05:46:48.749Z,35.80
2019-01-29T05:49:18.691Z,35.80
2019-01-29T05:51:48.617Z,35.70
2019-01-29T05:54:18.511Z,35.80
2019-01-29T05:56:48.430Z,35.60
2019-01-29T05:59:18.525Z,35.70
2019-01-29T06:01:48.449Z,35.70
2019-01-29T06:04:18.309Z,35.60
2019-01-29T06:06:49.213Z,35.60
2019-01-29T06:09:19.158Z,35.70
2019-01-29T06:11:49.037Z,35.60
2019-01-29T06:14:18.900Z,35.70
2019-01-29T06:16:48.762Z,35.70
2019-01-29T06:19:19.274Z,35.70
2019-01-29T06:21:49.142Z,35.60
2019-01-29T06:24:25.653Z,35.60
2019-01-29T06:26:51.874Z,35.70
2019-01-29T06:29:21.829Z,35.70
2019-01-29T06:31:51.774Z,35.70
2019-01-29T06:34:21.633Z,35.90
2019-01-29T06:36:51.557Z,35.90
2019-01-29T06:39:21.565Z,35.80
2019-01-29T06:41:51.703Z,35.90
2019-01-29T06:44:21.495Z,35.80
2019-01-29T06:46:51.649Z,35.70
2019-01-29T06:49:21.501Z,35.60
2019-01-29T06:51:51.353Z,35.60
2019-01-29T06:54:22.911Z,35.60
2019-01-29T06:56:52.935Z,35.80
2019-01-29T06:59:22.893Z,35.70
2019-01-29T07:01:52.757Z,35.40
2019-01-29T07:04:22.609Z,35.30
2019-01-29T07:06:52.727Z,35.20
2019-01-29T07:09:22.730Z,35.40
2019-01-29T07:12:00.334Z,35.30
2019-01-29T07:14:30.257Z,35.50
2019-01-29T07:17:11.414Z,35.70
2019-01-29T07:19:47.013Z,36.60
2019-01-29T07:22:17.017Z,36.10
2019-01-29T07:24:46.952Z,36.20
2019-01-29T07:27:17.040Z,36.40
2019-01-29T07:29:46.983Z,36.70
2019-01-29T07:32:16.854Z,36.60
2019-01-29T07:34:46.804Z,36.60
2019-01-29T07:37:21.872Z,36.60
2019-01-29T07:39:48.387Z,37.30
2019-01-29T07:42:37.413Z,37.50
2019-01-29T07:45:09.069Z,36.80
2019-01-29T07:47:39.894Z,36.70
2019-01-29T07:50:09.894Z,36.70
2019-01-29T07:52:39.758Z,36.70
2019-01-29T07:55:09.879Z,36.60
2019-01-29T07:57:39.808Z,36.70
2019-01-29T08:00:10.762Z,36.70
2019-01-29T08:02:41.598Z,37.10
2019-01-29T08:05:11.502Z,37.20
2019-01-29T08:07:42.425Z,36.90
2019-01-29T08:10:12.433Z,37.00
2019-01-29T08:12:42.381Z,37.00
2019-01-29T08:15:12.277Z,37.10
2019-01-29T08:17:42.205Z,37.40
2019-01-29T08:20:12.158Z,37.80
2019-01-29T08:22:42.549Z,37.80
2019-01-29T08:25:12.589Z,37.90
2019-01-29T08:27:43.007Z,37.90
2019-01-29T08:30:13.002Z,37.90
2019-01-29T08:32:44.494Z,37.80
2019-01-29T08:35:14.489Z,37.80
2019-01-29T08:37:44.647Z,37.90
2019-01-29T08:40:14.589Z,37.90
2019-01-29T08:42:44.529Z,37.80
2019-01-29T08:45:14.406Z,37.80
2019-01-29T08:47:44.217Z,37.70
2019-01-29T08:50:16.930Z,37.50
2019-01-29T08:52:46.778Z,37.50
2019-01-29T08:55:16.629Z,37.50
2019-01-29T08:57:46.613Z,37.60
2019-01-29T09:00:16.941Z,37.50
2019-01-29T09:02:47.955Z,37.40
2019-01-29T09:05:19.141Z,37.50
2019-01-29T09:07:49.562Z,37.50
2019-01-29T09:10:19.559Z,37.50
2019-01-29T09:12:49.417Z,37.50
2019-01-29T09:15:19.312Z,37.50
2019-01-29T09:17:49.515Z,37.50
2019-01-29T09:20:19.522Z,37.50
2019-01-29T09:22:50.614Z,37.40
2019-01-29T09:25:22.699Z,37.60
2019-01-29T09:27:52.537Z,37.50
2019-01-29T09:30:22.429Z,37.20
2019-01-29T09:32:52.286Z,37.20
2019-01-29T09:35:22.160Z,37.10
2019-01-29T09:37:52.491Z,37.20
2019-01-29T09:40:22.641Z,37.20
2019-01-29T09:42:52.520Z,37.40
2019-01-29T09:45:22.514Z,37.50
2019-01-29T09:47:52.435Z,37.70
2019-01-29T09:50:22.917Z,37.70
2019-01-29T09:52:52.815Z,37.90
2019-01-29T09:55:28.880Z,38.10
2019-01-29T09:57:54.498Z,38.30
2019-01-29T10:00:30.322Z,38.30
2019-01-29T10:03:00.406Z,38.30
2019-01-29T10:05:30.435Z,38.30
2019-01-29T10:08:00.530Z,38.60
2019-01-29T10:10:30.753Z,38.60
2019-01-29T10:13:00.709Z,38.60
2019-01-29T10:15:32.202Z,38.60
2019-01-29T10:18:02.274Z,38.50
2019-01-29T10:20:32.273Z,39.00
2019-01-29T10:23:02.146Z,38.50
2019-01-29T10:25:37.741Z,38.40
2019-01-29T10:28:04.797Z,38.40
2019-01-29T10:30:34.845Z,38.50
2019-01-29T10:33:04.977Z,38.60
2019-01-29T10:35:35.050Z,38.70
2019-01-29T10:38:04.949Z,38.30
2019-01-29T10:40:34.957Z,38.30
2019-01-29T10:43:06.045Z,38.40
2019-01-29T10:45:36.093Z,38.40
2019-01-29T10:48:06.266Z,38.80
2019-01-29T10:50:36.199Z,38.00
2019-01-29T10:53:06.087Z,39.10
2019-01-29T10:55:36.059Z,38.50
2019-01-29T10:58:06.118Z,38.80
2019-01-29T11:00:38.459Z,39.00
2019-01-29T11:03:10.218Z,38.70
2019-01-29T11:05:40.122Z,38.90
2019-01-29T11:08:10.071Z,39.00
2019-01-29T11:10:40.160Z,39.00
2019-01-29T11:13:10.146Z,39.00
2019-01-29T11:15:41.625Z,38.90
2019-01-29T11:18:15.912Z,39.70
2019-01-29T11:20:45.794Z,38.90
2019-01-29T11:23:17.217Z,38.90
2019-01-29T11:25:55.607Z,38.90
2019-01-29T11:28:19.689Z,39.00
2019-01-29T11:30:49.659Z,39.10
2019-01-29T11:33:19.613Z,39.10
2019-01-29T11:35:49.505Z,39.50
2019-01-29T11:38:19.437Z,39.40
2019-01-29T11:40:49.384Z,39.60
2019-01-29T11:43:19.393Z,39.60
2019-01-29T11:45:52.280Z,39.60
2019-01-29T11:48:22.242Z,39.70
2019-01-29T11:50:52.115Z,39.80
2019-01-29T11:53:21.966Z,39.90
2019-01-29T11:55:52.264Z,40.10
2019-01-29T11:58:22.117Z,40.00
2019-01-29T12:01:01.628Z,40.00
2019-01-29T12:03:31.673Z,40.10
2019-01-29T12:06:01.538Z,40.20
2019-01-29T12:08:31.471Z,40.10
2019-01-29T12:11:01.329Z,40.10
2019-01-29T12:13:31.216Z,40.10
2019-01-29T12:16:01.141Z,40.00
2019-01-29T12:18:31.165Z,40.00
2019-01-29T12:21:01.103Z,39.90
2019-01-29T12:23:31.117Z,40.10
2019-01-29T12:26:01.089Z,40.20
2019-01-29T12:28:31.029Z,40.00
2019-01-29T12:31:01.074Z,40.00
2019-01-29T12:33:30.933Z,39.90
2019-01-29T12:36:00.804Z,39.80
2019-01-29T12:38:30.677Z,39.50
2019-01-29T12:41:00.606Z,39.50
2019-01-29T12:43:30.487Z,39.40
2019-01-29T12:46:00.457Z,39.30
2019-01-29T12:48:30.338Z,39.20
2019-01-29T12:51:00.917Z,39.30
2019-01-29T12:53:34.438Z,39.10
2019-01-29T12:56:04.445Z,39.20
2019-01-29T12:58:34.398Z,39.10
2019-01-29T13:01:04.337Z,39.20
2019-01-29T13:03:34.297Z,39.10
2019-01-29T13:06:04.288Z,39.20
2019-01-29T13:08:34.213Z,39.30
2019-01-29T13:11:04.204Z,39.30
2019-01-29T13:13:34.170Z,39.30
2019-01-29T13:16:04.171Z,39.40
2019-01-29T13:18:34.274Z,39.50
2019-01-29T13:21:04.227Z,39.40
2019-01-29T13:23:34.221Z,39.60
2019-01-29T13:26:04.257Z,39.60
2019-01-29T13:28:34.300Z,39.60
2019-01-29T13:31:04.365Z,39.70
2019-01-29T13:33:35.207Z,39.70
2019-01-29T13:36:06.902Z,39.50
2019-01-29T13:38:36.809Z,39.50
2019-01-29T13:41:06.709Z,39.70
2019-01-29T13:43:36.678Z,39.70
2019-01-29T13:46:06.976Z,39.80
2019-01-29T13:48:37.050Z,39.70
2019-01-29T13:51:07.090Z,39.40
2019-01-29T13:53:37.033Z,39.10
2019-01-29T13:56:06.962Z,39.00
2019-01-29T13:58:36.839Z,39.00
2019-01-29T14:01:06.858Z,39.30
2019-01-29T14:03:36.651Z,39.40
2019-01-29T14:06:18.574Z,39.50
2019-01-29T14:08:48.486Z,39.40
2019-01-29T14:11:18.458Z,39.80
2019-01-29T14:13:48.485Z,40.00
2019-01-29T14:16:18.725Z,40.00
2019-01-29T14:18:48.674Z,39.90
2019-01-29T14:21:18.622Z,40.00
2019-01-29T14:23:48.520Z,39.70
2019-01-29T14:26:18.466Z,39.90
2019-01-29T14:28:48.371Z,40.00
2019-01-29T14:31:18.330Z,39.90
2019-01-29T14:33:48.267Z,39.70
2019-01-29T14:36:18.470Z,39.70
2019-01-29T14:39:34.671Z,39.70
2019-01-29T14:42:04.786Z,39.50
2019-01-29T14:44:41.233Z,39.60
2019-01-29T14:47:11.194Z,39.70
2019-01-29T14:49:41.093Z,39.40
2019-01-29T14:52:11.068Z,39.60
2019-01-29T14:54:40.990Z,39.60
2019-01-29T14:57:10.938Z,40.00
2019-01-29T14:59:40.955Z,39.90
2019-01-29T15:02:10.923Z,40.00
2019-01-29T15:04:41.101Z,39.90
2019-01-29T15:07:11.083Z,39.90
2019-01-29T15:09:41.118Z,40.00
2019-01-29T15:12:11.398Z,40.10
2019-01-29T15:14:41.442Z,41.00
2019-01-29T15:17:43.750Z,40.40
2019-01-29T15:20:13.779Z,40.60
2019-01-29T15:22:43.733Z,40.80
2019-01-29T15:25:13.766Z,40.70
2019-01-29T15:27:43.661Z,40.80
2019-01-29T15:30:19.709Z,40.80
2019-01-29T15:32:49.737Z,40.70
2019-01-29T15:35:19.653Z,41.30
2019-01-29T15:37:49.614Z,41.30
2019-01-29T15:40:19.601Z,41.20
2019-01-29T15:42:49.592Z,41.10
2019-01-29T15:45:19.814Z,41.40
2019-01-29T15:47:49.788Z,41.30
2019-01-29T15:50:20.909Z,41.00
2019-01-29T15:52:50.873Z,41.00
2019-01-29T15:55:21.053Z,41.60
2019-01-29T15:57:51.245Z,40.80
2019-01-29T16:00:24.830Z,40.70
2019-01-29T16:02:54.811Z,40.50
2019-01-29T16:05:26.523Z,40.40
2019-01-29T16:07:57.548Z,40.50
2019-01-29T16:10:29.636Z,40.80
2019-01-29T16:12:59.599Z,41.00
2019-01-29T16:15:29.670Z,40.70
2019-01-29T16:17:59.574Z,40.50
2019-01-29T16:20:29.566Z,40.60
2019-01-29T16:22:59.714Z,40.50
2019-01-29T16:25:29.817Z,40.20
2019-01-29T16:27:59.831Z,39.90
2019-01-29T16:30:29.997Z,39.70
2019-01-29T16:33:01.086Z,39.70
2019-01-29T16:35:31.635Z,40.10
2019-01-29T16:38:01.910Z,39.80
2019-01-29T16:40:31.977Z,39.50
2019-01-29T16:43:01.965Z,39.40
2019-01-29T16:45:32.725Z,39.50
2019-01-29T16:48:02.797Z,39.90
2019-01-29T16:50:33.664Z,39.80
2019-01-29T16:53:03.705Z,39.60
2019-01-29T16:55:33.600Z,39.30
2019-01-29T16:58:03.553Z,39.10
2019-01-29T17:00:33.509Z,39.00
2019-01-29T17:03:03.546Z,39.00
2019-01-29T17:05:33.501Z,38.80
2019-01-29T17:08:03.472Z,38.70
2019-01-29T17:10:33.558Z,38.70
2019-01-29T17:13:04.614Z,38.80
2019-01-29T17:15:34.655Z,38.70
2019-01-29T17:18:04.793Z,38.80
2019-01-29T17:20:37.014Z,38.90
2019-01-29T17:23:07.638Z,38.80
2019-01-29T17:25:37.882Z,38.70
2019-01-29T17:28:09.108Z,38.80
2019-01-29T17:30:41.113Z,38.90
2019-01-29T17:33:12.520Z,38.90
2019-01-29T17:35:42.466Z,38.90
2019-01-29T17:38:12.398Z,38.90
2019-01-29T17:40:42.783Z,38.90
2019-01-29T17:43:12.766Z,38.90
2019-01-29T17:45:44.747Z,39.00
2019-01-29T17:48:14.690Z,38.90
2019-01-29T17:50:45.143Z,38.90
2019-01-29T17:53:15.159Z,38.90
2019-01-29T17:55:45.426Z,38.80
2019-01-29T17:58:15.596Z,38.80
2019-01-29T18:00:48.720Z,38.90
2019-01-29T18:03:19.287Z,38.90
2019-01-29T18:05:49.475Z,38.70
2019-01-29T18:08:19.472Z,38.70
2019-01-29T18:10:49.544Z,38.60
2019-01-29T18:13:19.850Z,38.70
2019-01-29T18:15:50.148Z,38.90
2019-01-29T18:18:20.135Z,38.90
2019-01-29T18:20:50.290Z,38.90
2019-01-29T18:23:20.345Z,38.80
2019-01-29T18:25:50.530Z,39.20
2019-01-29T18:28:20.656Z,38.20
2019-01-29T18:30:50.693Z,38.30
2019-01-29T18:33:20.790Z,38.00
2019-01-29T18:35:50.806Z,38.00
2019-01-29T18:38:20.730Z,38.00
2019-01-29T18:40:55.506Z,37.80
2019-01-29T18:43:25.402Z,37.80
2019-01-29T18:45:55.354Z,37.70
2019-01-29T18:48:25.484Z,37.70
2019-01-29T18:50:55.562Z,37.70
2019-01-29T18:53:25.606Z,37.50
2019-01-29T18:55:55.573Z,37.20
2019-01-29T18:58:25.573Z,37.30
2019-01-29T19:00:55.648Z,37.30
2019-01-29T19:03:25.769Z,37.50
2019-01-29T19:05:58.998Z,37.50
2019-01-29T19:08:29.185Z,37.40
2019-01-29T19:10:59.901Z,37.50
2019-01-29T19:13:29.998Z,37.50
2019-01-29T19:16:00.013Z,37.30
2019-01-29T19:18:29.985Z,37.40
2019-01-29T19:20:59.987Z,37.70
2019-01-29T19:23:30.042Z,37.60
2019-01-29T19:26:00.050Z,38.50
2019-01-29T19:28:30.126Z,37.40
2019-01-29T19:31:00.163Z,37.80
2019-01-29T19:33:30.247Z,38.00
2019-01-29T19:36:00.222Z,38.00
2019-01-29T19:38:30.477Z,37.70
2019-01-29T19:41:00.627Z,37.90
2019-01-29T19:43:30.562Z,38.00
2019-01-29T19:46:00.623Z,37.90
2019-01-29T19:48:30.730Z,38.70
2019-01-29T19:51:00.792Z,37.70
2019-01-29T19:53:30.823Z,37.80
2019-01-29T19:56:01.065Z,37.80
2019-01-29T19:58:32.367Z,37.90
2019-01-29T20:01:02.613Z,38.20
2019-01-29T20:03:32.609Z,38.20
2019-01-29T20:06:14.202Z,38.10
2019-01-29T20:08:44.226Z,37.90
2019-01-29T20:11:14.238Z,38.10
2019-01-29T20:13:44.302Z,38.50
2019-01-29T20:16:14.441Z,38.00
2019-01-29T20:18:44.477Z,38.10
2019-01-29T20:21:14.589Z,37.70
2019-01-29T20:23:44.594Z,38.00
2019-01-29T20:26:14.594Z,37.90
2019-01-29T20:28:44.566Z,37.80
2019-01-29T20:31:14.999Z,37.90
2019-01-29T20:33:46.218Z,37.80
2019-01-29T20:36:16.192Z,37.70
2019-01-29T20:38:47.314Z,37.60
2019-01-29T20:41:17.325Z,37.70
2019-01-29T20:43:47.366Z,37.80
2019-01-29T20:46:17.420Z,37.70
2019-01-29T20:48:47.410Z,37.90
2019-01-29T20:51:17.477Z,37.80
2019-01-29T20:53:47.457Z,38.10
2019-01-29T20:56:17.506Z,38.20
2019-01-29T20:58:52.679Z,38.30
2019-01-29T21:01:19.153Z,38.30
2019-01-29T21:03:49.110Z,38.50
2019-01-29T21:06:19.174Z,38.40
2019-01-29T21:08:49.139Z,38.40
2019-01-29T21:11:19.157Z,38.40
2019-01-29T21:13:49.070Z,38.30
2019-01-29T21:16:19.603Z,38.40
2019-01-29T21:18:49.621Z,38.40
2019-01-29T21:21:19.565Z,38.50
2019-01-29T21:23:49.543Z,38.70
2019-01-29T21:26:19.492Z,38.90
2019-01-29T21:28:49.466Z,39.00
2019-01-29T21:31:19.417Z,39.10
2019-01-29T21:33:49.382Z,38.90
2019-01-29T21:36:19.355Z,39.00
2019-01-29T21:38:49.311Z,39.00
2019-01-29T21:41:19.379Z,39.00
2019-01-29T21:43:49.386Z,38.90
2019-01-29T21:46:20.305Z,38.90
2019-01-29T21:48:50.298Z,38.80
2019-01-29T21:51:20.358Z,38.80
2019-01-29T21:53:50.390Z,38.90
2019-01-29T21:56:20.443Z,39.00
2019-01-29T21:58:50.518Z,38.80
2019-01-29T22:01:20.510Z,38.80
2019-01-29T22:03:50.635Z,38.70
2019-01-29T22:06:20.706Z,38.70
2019-01-29T22:08:50.779Z,38.90
2019-01-29T22:11:20.690Z,38.90
2019-01-29T22:13:50.656Z,39.30
2019-01-29T22:16:20.720Z,38.80
2019-01-29T22:18:50.803Z,38.80
2019-01-29T22:21:21.145Z,38.90
2019-01-29T22:23:51.106Z,38.20
2019-01-29T22:26:21.161Z,37.80
2019-01-29T22:28:51.314Z,37.60
2019-01-29T22:31:21.372Z,37.70
2019-01-29T22:33:51.429Z,37.70
2019-01-29T22:36:21.663Z,37.50
2019-01-29T22:38:52.061Z,37.80
2019-01-29T22:41:22.142Z,37.40
2019-01-29T22:43:52.157Z,37.30
2019-01-29T22:46:22.172Z,37.20
2019-01-29T22:48:52.138Z,37.00
2019-01-29T22:51:22.146Z,37.10
2019-01-29T22:53:52.153Z,37.70
2019-01-29T22:56:22.101Z,37.70
2019-01-29T22:58:52.101Z,37.40
2019-01-29T23:01:40.379Z,37.50
2019-01-29T23:04:22.546Z,37.40
2019-01-29T23:06:58.353Z,37.30
2019-01-29T23:09:28.408Z,37.20
2019-01-29T23:11:58.434Z,37.10
2019-01-29T23:14:28.449Z,37.20
2019-01-29T23:16:58.631Z,37.20
2019-01-29T23:19:28.550Z,37.10
2019-01-29T23:21:58.433Z,37.20
2019-01-29T23:24:28.411Z,36.90
2019-01-29T23:26:58.369Z,36.90
2019-01-29T23:29:28.551Z,36.90
2019-01-29T23:31:58.706Z,36.80
2019-01-29T23:34:28.747Z,36.70
2019-01-29T23:37:01.374Z,36.50
2019-01-29T23:39:31.333Z,36.50
2019-01-29T23:42:01.202Z,36.20
2019-01-29T23:44:31.082Z,36.30
2019-01-29T23:47:00.936Z,36.20
2019-01-29T23:49:30.835Z,36.20
2019-01-29T23:52:00.835Z,36.00
2019-01-29T23:54:30.797Z,36.10
2019-01-29T23:57:00.585Z,36.00
2019-01-29T23:59:30.548Z,36.10
